sensor_id;sensor_type;location;lat;lon;timestamp;temperature;humidity
46085;DHT22;31823;47.032;8.310;2023-04-04T00:01:04;1.80;99.90
46085;DHT22;31823;47.032;8.310;2023-04-04T00:03:30;1.80;99.90
46085;DHT22;31823;47.032;8.310;2023-04-04T00:05:56;1.90;99.90
46085;DHT22;31823;47.032;8.310;2023-04-04T00:08:22;2.00;99.90
46085;DHT22;31823;47.032;8.310;2023-04-04T00:10:48;2.00;99.90
46085;DHT22;31823;47.032;8.310;2023-04-04T00:13:13;2.00;99.90
46085;DHT22;31823;47.032;8.310;2023-04-04T00:15:39;2.00;99.90
46085;DHT22;31823;47.032;8.310;2023-04-04T00:18:06;1.90;99.90
46085;DHT22;31823;47.032;8.310;2023-04-04T00:20:31;1.90;99.90
46085;DHT22;31823;47.032;8.310;2023-04-04T00:22:57;1.80;99.90
46085;DHT22;31823;47.032;8.310;2023-04-04T00:25:24;1.80;99.90
46085;DHT22;31823;47.032;8.310;2023-04-04T00:27:50;1.90;99.90
46085;DHT22;31823;47.032;8.310;2023-04-04T00:30:16;2.00;99.90
46085;DHT22;31823;47.032;8.310;2023-04-04T00:32:42;1.90;99.90
46085;DHT22;31823;47.032;8.310;2023-04-04T00:35:08;1.90;99.90
46085;DHT22;31823;47.032;8.310;2023-04-04T00:37:33;1.80;99.90
46085;DHT22;31823;47.032;8.310;2023-04-04T00:40:00;1.90;99.90
46085;DHT22;31823;47.032;8.310;2023-04-04T00:42:26;1.50;99.90
46085;DHT22;31823;47.032;8.310;2023-04-04T00:44:52;1.60;99.90
46085;DHT22;31823;47.032;8.310;2023-04-04T00:47:21;1.70;99.90
46085;DHT22;31823;47.032;8.310;2023-04-04T00:49:47;1.70;99.90
46085;DHT22;31823;47.032;8.310;2023-04-04T00:52:13;1.60;99.90
46085;DHT22;31823;47.032;8.310;2023-04-04T00:54:39;1.70;99.90
46085;DHT22;31823;47.032;8.310;2023-04-04T00:57:06;1.60;99.90
46085;DHT22;31823;47.032;8.310;2023-04-04T00:59:33;1.60;99.90
46085;DHT22;31823;47.032;8.310;2023-04-04T01:01:59;1.60;99.90
46085;DHT22;31823;47.032;8.310;2023-04-04T01:04:26;1.60;99.90
46085;DHT22;31823;47.032;8.310;2023-04-04T01:06:53;1.60;99.90
46085;DHT22;31823;47.032;8.310;2023-04-04T01:09:20;1.50;99.90
46085;DHT22;31823;47.032;8.310;2023-04-04T01:11:46;1.50;99.90
46085;DHT22;31823;47.032;8.310;2023-04-04T01:14:11;1.50;99.90
46085;DHT22;31823;47.032;8.310;2023-04-04T01:16:38;1.50;99.90
46085;DHT22;31823;47.032;8.310;2023-04-04T01:19:07;1.40;99.90
46085;DHT22;31823;47.032;8.310;2023-04-04T01:21:34;1.50;99.90
46085;DHT22;31823;47.032;8.310;2023-04-04T01:24:01;1.40;99.90
46085;DHT22;31823;47.032;8.310;2023-04-04T01:26:28;1.40;99.90
46085;DHT22;31823;47.032;8.310;2023-04-04T01:28:54;1.30;99.90
46085;DHT22;31823;47.032;8.310;2023-04-04T01:31:25;1.30;99.90
46085;DHT22;31823;47.032;8.310;2023-04-04T01:39:24;1.30;99.90
46085;DHT22;31823;47.032;8.310;2023-04-04T01:41:53;1.30;99.90
46085;DHT22;31823;47.032;8.310;2023-04-04T01:44:20;1.20;99.90
46085;DHT22;31823;47.032;8.310;2023-04-04T01:46:54;1.10;99.90
46085;DHT22;31823;47.032;8.310;2023-04-04T01:49:21;1.10;99.90
46085;DHT22;31823;47.032;8.310;2023-04-04T01:51:48;0.70;99.90
46085;DHT22;31823;47.032;8.310;2023-04-04T01:54:14;0.80;99.90
46085;DHT22;31823;47.032;8.310;2023-04-04T01:56:41;0.90;99.90
46085;DHT22;31823;47.032;8.310;2023-04-04T01:59:07;1.10;99.90
46085;DHT22;31823;47.032;8.310;2023-04-04T02:01:33;1.10;99.90
46085;DHT22;31823;47.032;8.310;2023-04-04T02:03:59;1.00;99.90
46085;DHT22;31823;47.032;8.310;2023-04-04T02:06:26;1.10;99.90
46085;DHT22;31823;47.032;8.310;2023-04-04T02:08:52;1.10;99.90
46085;DHT22;31823;47.032;8.310;2023-04-04T02:11:17;1.10;99.90
46085;DHT22;31823;47.032;8.310;2023-04-04T02:13:46;1.20;99.90
46085;DHT22;31823;47.032;8.310;2023-04-04T02:16:12;1.20;99.90
46085;DHT22;31823;47.032;8.310;2023-04-04T02:18:38;1.20;99.90
46085;DHT22;31823;47.032;8.310;2023-04-04T02:21:03;1.10;99.90
46085;DHT22;31823;47.032;8.310;2023-04-04T02:23:29;1.10;99.90
46085;DHT22;31823;47.032;8.310;2023-04-04T02:25:54;0.90;99.90
46085;DHT22;31823;47.032;8.310;2023-04-04T02:28:20;0.90;99.90
46085;DHT22;31823;47.032;8.310;2023-04-04T02:30:45;0.80;99.90
46085;DHT22;31823;47.032;8.310;2023-04-04T02:33:11;0.90;99.90
46085;DHT22;31823;47.032;8.310;2023-04-04T02:35:37;1.00;99.90
46085;DHT22;31823;47.032;8.310;2023-04-04T02:38:02;1.00;99.90
46085;DHT22;31823;47.032;8.310;2023-04-04T02:40:28;1.00;99.90
46085;DHT22;31823;47.032;8.310;2023-04-04T02:42:53;1.00;99.90
46085;DHT22;31823;47.032;8.310;2023-04-04T02:45:19;0.90;99.90
46085;DHT22;31823;47.032;8.310;2023-04-04T02:47:51;0.90;99.90
46085;DHT22;31823;47.032;8.310;2023-04-04T02:50:17;0.90;99.90
46085;DHT22;31823;47.032;8.310;2023-04-04T02:52:43;1.00;99.90
46085;DHT22;31823;47.032;8.310;2023-04-04T02:55:09;0.90;99.90
46085;DHT22;31823;47.032;8.310;2023-04-04T02:57:34;0.90;99.90
46085;DHT22;31823;47.032;8.310;2023-04-04T03:00:00;0.90;99.90
46085;DHT22;31823;47.032;8.310;2023-04-04T03:02:28;0.90;99.90
46085;DHT22;31823;47.032;8.310;2023-04-04T03:04:55;0.80;99.90
46085;DHT22;31823;47.032;8.310;2023-04-04T03:07:20;0.80;99.90
46085;DHT22;31823;47.032;8.310;2023-04-04T03:09:48;0.80;99.90
46085;DHT22;31823;47.032;8.310;2023-04-04T03:12:14;0.90;99.90
46085;DHT22;31823;47.032;8.310;2023-04-04T03:14:39;0.80;99.90
46085;DHT22;31823;47.032;8.310;2023-04-04T03:17:05;0.80;99.90
46085;DHT22;31823;47.032;8.310;2023-04-04T03:19:33;0.60;99.90
46085;DHT22;31823;47.032;8.310;2023-04-04T03:21:59;0.70;99.90
46085;DHT22;31823;47.032;8.310;2023-04-04T03:24:25;0.80;99.90
46085;DHT22;31823;47.032;8.310;2023-04-04T03:26:50;0.80;99.90
46085;DHT22;31823;47.032;8.310;2023-04-04T03:29:16;0.80;99.90
46085;DHT22;31823;47.032;8.310;2023-04-04T03:31:42;0.70;99.90
46085;DHT22;31823;47.032;8.310;2023-04-04T03:34:07;0.60;99.90
46085;DHT22;31823;47.032;8.310;2023-04-04T03:36:33;0.70;99.90
46085;DHT22;31823;47.032;8.310;2023-04-04T03:38:59;0.70;99.90
46085;DHT22;31823;47.032;8.310;2023-04-04T03:41:24;0.60;99.90
46085;DHT22;31823;47.032;8.310;2023-04-04T03:43:50;0.50;99.90
46085;DHT22;31823;47.032;8.310;2023-04-04T03:46:16;0.50;99.90
46085;DHT22;31823;47.032;8.310;2023-04-04T03:48:41;0.60;99.90
46085;DHT22;31823;47.032;8.310;2023-04-04T03:51:07;0.50;99.90
46085;DHT22;31823;47.032;8.310;2023-04-04T03:53:32;0.50;99.90
46085;DHT22;31823;47.032;8.310;2023-04-04T03:56:00;0.50;99.90
46085;DHT22;31823;47.032;8.310;2023-04-04T03:58:25;0.50;99.90
46085;DHT22;31823;47.032;8.310;2023-04-04T04:00:53;0.40;99.90
46085;DHT22;31823;47.032;8.310;2023-04-04T04:03:19;0.30;99.90
46085;DHT22;31823;47.032;8.310;2023-04-04T04:05:45;0.40;99.90
46085;DHT22;31823;47.032;8.310;2023-04-04T04:08:12;0.40;99.90
46085;DHT22;31823;47.032;8.310;2023-04-04T04:10:37;0.50;99.90
46085;DHT22;31823;47.032;8.310;2023-04-04T04:13:03;0.40;99.90
46085;DHT22;31823;47.032;8.310;2023-04-04T04:15:28;0.30;99.90
46085;DHT22;31823;47.032;8.310;2023-04-04T04:17:54;0.30;99.90
46085;DHT22;31823;47.032;8.310;2023-04-04T04:20:20;0.30;99.90
46085;DHT22;31823;47.032;8.310;2023-04-04T04:22:46;0.40;99.90
46085;DHT22;31823;47.032;8.310;2023-04-04T04:25:12;0.30;99.90
46085;DHT22;31823;47.032;8.310;2023-04-04T04:27:38;0.20;99.90
46085;DHT22;31823;47.032;8.310;2023-04-04T04:30:05;0.20;99.90
46085;DHT22;31823;47.032;8.310;2023-04-04T04:32:31;0.20;99.90
46085;DHT22;31823;47.032;8.310;2023-04-04T04:34:59;0.20;99.90
46085;DHT22;31823;47.032;8.310;2023-04-04T04:37:25;0.10;99.90
46085;DHT22;31823;47.032;8.310;2023-04-04T04:39:51;0.10;99.90
46085;DHT22;31823;47.032;8.310;2023-04-04T04:42:18;0.20;99.90
46085;DHT22;31823;47.032;8.310;2023-04-04T04:44:43;0.20;99.90
46085;DHT22;31823;47.032;8.310;2023-04-04T04:47:09;0.10;99.90
46085;DHT22;31823;47.032;8.310;2023-04-04T04:49:34;0.00;99.90
46085;DHT22;31823;47.032;8.310;2023-04-04T04:52:00;0.10;99.90
46085;DHT22;31823;47.032;8.310;2023-04-04T04:54:27;0.20;99.90
46085;DHT22;31823;47.032;8.310;2023-04-04T04:56:52;0.10;99.90
46085;DHT22;31823;47.032;8.310;2023-04-04T04:59:18;0.00;99.90
46085;DHT22;31823;47.032;8.310;2023-04-04T05:01:44;0.10;99.90
46085;DHT22;31823;47.032;8.310;2023-04-04T05:04:09;0.10;99.90
46085;DHT22;31823;47.032;8.310;2023-04-04T05:06:35;0.00;99.90
46085;DHT22;31823;47.032;8.310;2023-04-04T05:09:02;0.00;99.90
46085;DHT22;31823;47.032;8.310;2023-04-04T05:11:28;0.30;99.90
46085;DHT22;31823;47.032;8.310;2023-04-04T05:13:53;0.20;99.90
46085;DHT22;31823;47.032;8.310;2023-04-04T05:16:19;0.20;99.90
46085;DHT22;31823;47.032;8.310;2023-04-04T05:18:45;0.20;99.90
46085;DHT22;31823;47.032;8.310;2023-04-04T05:21:11;0.20;99.90
46085;DHT22;31823;47.032;8.310;2023-04-04T05:23:36;0.30;99.90
46085;DHT22;31823;47.032;8.310;2023-04-04T05:26:02;0.30;99.90
46085;DHT22;31823;47.032;8.310;2023-04-04T05:28:28;0.20;99.90
46085;DHT22;31823;47.032;8.310;2023-04-04T05:30:53;0.30;99.90
46085;DHT22;31823;47.032;8.310;2023-04-04T05:33:19;0.30;99.90
46085;DHT22;31823;47.032;8.310;2023-04-04T05:35:44;0.40;99.90
46085;DHT22;31823;47.032;8.310;2023-04-04T05:38:10;0.40;99.90
46085;DHT22;31823;47.032;8.310;2023-04-04T05:40:36;0.50;99.90
46085;DHT22;31823;47.032;8.310;2023-04-04T05:43:02;0.40;99.90
46085;DHT22;31823;47.032;8.310;2023-04-04T05:45:29;0.40;99.90
46085;DHT22;31823;47.032;8.310;2023-04-04T05:47:56;0.50;99.90
46085;DHT22;31823;47.032;8.310;2023-04-04T05:50:22;0.40;99.90
46085;DHT22;31823;47.032;8.310;2023-04-04T05:52:47;0.40;99.90
46085;DHT22;31823;47.032;8.310;2023-04-04T05:55:13;0.40;99.90
46085;DHT22;31823;47.032;8.310;2023-04-04T05:57:49;0.40;99.90
46085;DHT22;31823;47.032;8.310;2023-04-04T06:00:16;0.50;99.90
46085;DHT22;31823;47.032;8.310;2023-04-04T06:02:41;0.40;99.90
46085;DHT22;31823;47.032;8.310;2023-04-04T06:05:07;0.40;99.90
46085;DHT22;31823;47.032;8.310;2023-04-04T06:07:33;0.40;99.90
46085;DHT22;31823;47.032;8.310;2023-04-04T06:09:59;0.40;99.90
46085;DHT22;31823;47.032;8.310;2023-04-04T06:12:24;0.50;99.90
46085;DHT22;31823;47.032;8.310;2023-04-04T06:14:50;0.80;99.90
46085;DHT22;31823;47.032;8.310;2023-04-04T06:17:15;0.70;99.90
46085;DHT22;31823;47.032;8.310;2023-04-04T06:19:41;0.50;99.90
46085;DHT22;31823;47.032;8.310;2023-04-04T06:22:07;0.70;99.90
46085;DHT22;31823;47.032;8.310;2023-04-04T06:24:32;0.70;99.90
46085;DHT22;31823;47.032;8.310;2023-04-04T06:26:58;0.80;99.90
46085;DHT22;31823;47.032;8.310;2023-04-04T06:29:23;0.60;99.90
46085;DHT22;31823;47.032;8.310;2023-04-04T06:31:50;0.60;99.90
46085;DHT22;31823;47.032;8.310;2023-04-04T06:34:16;0.80;99.90
46085;DHT22;31823;47.032;8.310;2023-04-04T06:36:42;1.00;99.90
46085;DHT22;31823;47.032;8.310;2023-04-04T06:39:07;1.00;99.90
46085;DHT22;31823;47.032;8.310;2023-04-04T06:41:33;0.90;99.90
46085;DHT22;31823;47.032;8.310;2023-04-04T06:43:59;0.80;99.90
46085;DHT22;31823;47.032;8.310;2023-04-04T06:46:25;0.80;99.90
46085;DHT22;31823;47.032;8.310;2023-04-04T06:48:51;0.90;99.90
46085;DHT22;31823;47.032;8.310;2023-04-04T06:51:17;0.80;99.90
46085;DHT22;31823;47.032;8.310;2023-04-04T06:53:43;1.10;99.90
46085;DHT22;31823;47.032;8.310;2023-04-04T06:56:10;1.10;99.90
46085;DHT22;31823;47.032;8.310;2023-04-04T06:58:36;1.00;99.90
46085;DHT22;31823;47.032;8.310;2023-04-04T07:01:03;1.20;99.90
46085;DHT22;31823;47.032;8.310;2023-04-04T07:03:28;1.10;99.90
46085;DHT22;31823;47.032;8.310;2023-04-04T07:05:55;1.20;99.90
46085;DHT22;31823;47.032;8.310;2023-04-04T07:08:20;1.30;99.90
46085;DHT22;31823;47.032;8.310;2023-04-04T07:10:46;1.40;99.90
46085;DHT22;31823;47.032;8.310;2023-04-04T07:13:11;1.50;99.90
46085;DHT22;31823;47.032;8.310;2023-04-04T07:15:37;1.40;99.90
46085;DHT22;31823;47.032;8.310;2023-04-04T07:18:03;1.50;99.90
46085;DHT22;31823;47.032;8.310;2023-04-04T07:20:28;1.60;99.90
46085;DHT22;31823;47.032;8.310;2023-04-04T07:22:54;1.70;99.90
46085;DHT22;31823;47.032;8.310;2023-04-04T07:25:19;1.70;99.90
46085;DHT22;31823;47.032;8.310;2023-04-04T07:27:45;1.70;99.90
46085;DHT22;31823;47.032;8.310;2023-04-04T07:30:11;1.70;99.90
46085;DHT22;31823;47.032;8.310;2023-04-04T07:32:37;1.70;99.90
46085;DHT22;31823;47.032;8.310;2023-04-04T07:35:04;1.70;99.90
46085;DHT22;31823;47.032;8.310;2023-04-04T07:37:31;1.60;99.90
46085;DHT22;31823;47.032;8.310;2023-04-04T07:39:58;1.70;99.90
46085;DHT22;31823;47.032;8.310;2023-04-04T07:42:23;1.80;99.90
46085;DHT22;31823;47.032;8.310;2023-04-04T07:44:49;1.70;99.90
46085;DHT22;31823;47.032;8.310;2023-04-04T07:47:15;2.00;99.90
46085;DHT22;31823;47.032;8.310;2023-04-04T07:49:41;2.00;99.90
46085;DHT22;31823;47.032;8.310;2023-04-04T07:52:07;2.10;99.90
46085;DHT22;31823;47.032;8.310;2023-04-04T07:54:33;2.10;99.90
46085;DHT22;31823;47.032;8.310;2023-04-04T07:56:59;2.20;99.90
46085;DHT22;31823;47.032;8.310;2023-04-04T07:59:25;2.10;99.90
46085;DHT22;31823;47.032;8.310;2023-04-04T08:01:50;2.20;99.90
46085;DHT22;31823;47.032;8.310;2023-04-04T08:04:16;2.40;99.90
46085;DHT22;31823;47.032;8.310;2023-04-04T08:06:42;2.40;99.90
46085;DHT22;31823;47.032;8.310;2023-04-04T08:09:08;2.60;99.90
46085;DHT22;31823;47.032;8.310;2023-04-04T08:11:34;2.70;99.90
46085;DHT22;31823;47.032;8.310;2023-04-04T08:14:00;2.60;99.90
46085;DHT22;31823;47.032;8.310;2023-04-04T08:16:25;2.80;99.90
46085;DHT22;31823;47.032;8.310;2023-04-04T08:18:51;2.90;99.90
46085;DHT22;31823;47.032;8.310;2023-04-04T08:21:17;2.80;99.90
46085;DHT22;31823;47.032;8.310;2023-04-04T08:23:43;2.90;99.90
46085;DHT22;31823;47.032;8.310;2023-04-04T08:26:09;3.10;99.90
46085;DHT22;31823;47.032;8.310;2023-04-04T08:28:36;3.20;99.90
46085;DHT22;31823;47.032;8.310;2023-04-04T08:31:02;3.30;99.90
46085;DHT22;31823;47.032;8.310;2023-04-04T08:33:28;3.40;99.90
46085;DHT22;31823;47.032;8.310;2023-04-04T08:35:54;3.30;99.90
46085;DHT22;31823;47.032;8.310;2023-04-04T08:38:21;3.40;99.90
46085;DHT22;31823;47.032;8.310;2023-04-04T08:40:48;3.40;99.90
46085;DHT22;31823;47.032;8.310;2023-04-04T08:43:14;3.40;99.90
46085;DHT22;31823;47.032;8.310;2023-04-04T08:45:42;3.20;99.90
46085;DHT22;31823;47.032;8.310;2023-04-04T08:48:10;3.30;99.90
46085;DHT22;31823;47.032;8.310;2023-04-04T08:50:38;3.40;99.90
46085;DHT22;31823;47.032;8.310;2023-04-04T08:53:04;3.60;99.90
46085;DHT22;31823;47.032;8.310;2023-04-04T08:55:31;3.30;99.90
46085;DHT22;31823;47.032;8.310;2023-04-04T08:57:57;3.40;99.90
46085;DHT22;31823;47.032;8.310;2023-04-04T09:00:23;3.40;99.90
46085;DHT22;31823;47.032;8.310;2023-04-04T09:03:04;3.40;99.90
46085;DHT22;31823;47.032;8.310;2023-04-04T09:05:31;3.30;99.90
46085;DHT22;31823;47.032;8.310;2023-04-04T09:07:57;3.50;99.90
46085;DHT22;31823;47.032;8.310;2023-04-04T09:10:23;3.70;99.90
46085;DHT22;31823;47.032;8.310;2023-04-04T09:12:50;3.80;99.90
46085;DHT22;31823;47.032;8.310;2023-04-04T09:15:16;3.90;99.90
46085;DHT22;31823;47.032;8.310;2023-04-04T09:17:42;3.70;99.90
46085;DHT22;31823;47.032;8.310;2023-04-04T09:20:36;3.60;99.90
46085;DHT22;31823;47.032;8.310;2023-04-04T09:23:06;4.00;99.90
46085;DHT22;31823;47.032;8.310;2023-04-04T09:25:33;4.00;99.90
46085;DHT22;31823;47.032;8.310;2023-04-04T09:27:59;4.00;99.90
46085;DHT22;31823;47.032;8.310;2023-04-04T09:30:27;4.00;99.90
46085;DHT22;31823;47.032;8.310;2023-04-04T09:32:54;4.20;99.90
46085;DHT22;31823;47.032;8.310;2023-04-04T09:35:21;3.80;99.90
46085;DHT22;31823;47.032;8.310;2023-04-04T09:37:47;3.70;99.90
46085;DHT22;31823;47.032;8.310;2023-04-04T09:40:13;4.00;99.90
46085;DHT22;31823;47.032;8.310;2023-04-04T09:42:39;4.10;99.90
46085;DHT22;31823;47.032;8.310;2023-04-04T09:45:05;4.10;99.90
46085;DHT22;31823;47.032;8.310;2023-04-04T09:47:31;4.20;99.90
46085;DHT22;31823;47.032;8.310;2023-04-04T09:50:01;4.30;99.90
46085;DHT22;31823;47.032;8.310;2023-04-04T09:52:31;4.40;99.90
46085;DHT22;31823;47.032;8.310;2023-04-04T09:54:59;4.60;99.90
46085;DHT22;31823;47.032;8.310;2023-04-04T09:57:28;4.10;99.90
46085;DHT22;31823;47.032;8.310;2023-04-04T10:00:01;4.30;99.90
46085;DHT22;31823;47.032;8.310;2023-04-04T10:02:29;4.50;99.90
46085;DHT22;31823;47.032;8.310;2023-04-04T10:04:55;4.80;99.90
46085;DHT22;31823;47.032;8.310;2023-04-04T10:07:28;4.70;99.90
46085;DHT22;31823;47.032;8.310;2023-04-04T10:09:55;5.00;99.90
46085;DHT22;31823;47.032;8.310;2023-04-04T10:12:23;5.20;99.90
46085;DHT22;31823;47.032;8.310;2023-04-04T10:14:56;5.30;99.90
46085;DHT22;31823;47.032;8.310;2023-04-04T10:17:23;5.10;99.90
46085;DHT22;31823;47.032;8.310;2023-04-04T10:19:51;5.30;99.90
46085;DHT22;31823;47.032;8.310;2023-04-04T10:22:19;5.20;99.90
46085;DHT22;31823;47.032;8.310;2023-04-04T10:24:45;5.20;99.90
46085;DHT22;31823;47.032;8.310;2023-04-04T10:27:11;5.10;99.90
46085;DHT22;31823;47.032;8.310;2023-04-04T10:29:36;5.10;99.90
46085;DHT22;31823;47.032;8.310;2023-04-04T10:32:04;5.10;99.90
46085;DHT22;31823;47.032;8.310;2023-04-04T10:34:48;5.10;99.90
46085;DHT22;31823;47.032;8.310;2023-04-04T10:37:24;5.20;99.90
46085;DHT22;31823;47.032;8.310;2023-04-04T10:40:04;5.50;99.90
46085;DHT22;31823;47.032;8.310;2023-04-04T10:42:38;5.80;99.90
46085;DHT22;31823;47.032;8.310;2023-04-04T10:45:07;6.60;99.90
46085;DHT22;31823;47.032;8.310;2023-04-04T10:47:33;7.80;99.90
46085;DHT22;31823;47.032;8.310;2023-04-04T10:50:00;7.60;99.30
46085;DHT22;31823;47.032;8.310;2023-04-04T10:52:27;7.50;99.20
46085;DHT22;31823;47.032;8.310;2023-04-04T10:54:57;8.50;98.60
46085;DHT22;31823;47.032;8.310;2023-04-04T10:57:24;9.30;96.70
46085;DHT22;31823;47.032;8.310;2023-04-04T10:59:57;9.40;97.00
46085;DHT22;31823;47.032;8.310;2023-04-04T11:05:30;8.00;95.80
46085;DHT22;31823;47.032;8.310;2023-04-04T11:08:00;7.70;95.90
46085;DHT22;31823;47.032;8.310;2023-04-04T11:10:27;7.10;98.20
46085;DHT22;31823;47.032;8.310;2023-04-04T11:12:55;6.60;98.20
46085;DHT22;31823;47.032;8.310;2023-04-04T11:15:24;7.00;98.70
46085;DHT22;31823;47.032;8.310;2023-04-04T11:18:05;7.10;98.00
46085;DHT22;31823;47.032;8.310;2023-04-04T11:20:33;7.40;97.30
46085;DHT22;31823;47.032;8.310;2023-04-04T11:25:33;7.10;98.80
46085;DHT22;31823;47.032;8.310;2023-04-04T11:28:14;7.10;97.40
46085;DHT22;31823;47.032;8.310;2023-04-04T11:34:11;7.20;97.60
46085;DHT22;31823;47.032;8.310;2023-04-04T11:44:17;7.10;96.50
46085;DHT22;31823;47.032;8.310;2023-04-04T11:46:44;7.50;95.20
46085;DHT22;31823;47.032;8.310;2023-04-04T11:49:13;8.00;95.30
46085;DHT22;31823;47.032;8.310;2023-04-04T11:51:39;7.40;95.90
46085;DHT22;31823;47.032;8.310;2023-04-04T11:54:14;7.30;95.80
46085;DHT22;31823;47.032;8.310;2023-04-04T11:56:43;8.20;97.00
46085;DHT22;31823;47.032;8.310;2023-04-04T11:59:16;8.30;95.50
46085;DHT22;31823;47.032;8.310;2023-04-04T12:01:43;7.60;94.50
46085;DHT22;31823;47.032;8.310;2023-04-04T12:04:09;7.40;96.30
46085;DHT22;31823;47.032;8.310;2023-04-04T12:06:36;7.80;96.60
46085;DHT22;31823;47.032;8.310;2023-04-04T12:09:02;7.40;95.80
46085;DHT22;31823;47.032;8.310;2023-04-04T12:11:29;7.40;95.90
46085;DHT22;31823;47.032;8.310;2023-04-04T12:13:55;8.90;96.10
46085;DHT22;31823;47.032;8.310;2023-04-04T12:16:22;8.50;94.00
46085;DHT22;31823;47.032;8.310;2023-04-04T12:18:48;8.30;93.50
46085;DHT22;31823;47.032;8.310;2023-04-04T12:21:14;9.10;95.70
46085;DHT22;31823;47.032;8.310;2023-04-04T12:23:40;8.70;95.40
46085;DHT22;31823;47.032;8.310;2023-04-04T12:26:06;8.40;93.80
46085;DHT22;31823;47.032;8.310;2023-04-04T12:28:34;8.10;92.90
46085;DHT22;31823;47.032;8.310;2023-04-04T12:31:03;8.00;94.00
46085;DHT22;31823;47.032;8.310;2023-04-04T12:33:31;8.50;93.50
46085;DHT22;31823;47.032;8.310;2023-04-04T12:36:01;8.40;94.80
46085;DHT22;31823;47.032;8.310;2023-04-04T12:38:30;8.20;95.60
46085;DHT22;31823;47.032;8.310;2023-04-04T12:40:56;7.70;94.40
46085;DHT22;31823;47.032;8.310;2023-04-04T12:43:22;7.60;94.10
46085;DHT22;31823;47.032;8.310;2023-04-04T12:45:53;7.90;96.10
46085;DHT22;31823;47.032;8.310;2023-04-04T12:48:25;8.10;93.90
46085;DHT22;31823;47.032;8.310;2023-04-04T12:50:52;7.60;94.80
46085;DHT22;31823;47.032;8.310;2023-04-04T12:53:20;7.20;94.50
46085;DHT22;31823;47.032;8.310;2023-04-04T12:55:46;7.60;94.60
46085;DHT22;31823;47.032;8.310;2023-04-04T12:58:15;8.20;93.50
46085;DHT22;31823;47.032;8.310;2023-04-04T13:00:41;8.60;93.70
46085;DHT22;31823;47.032;8.310;2023-04-04T13:03:07;9.50;94.70
46085;DHT22;31823;47.032;8.310;2023-04-04T13:05:34;8.90;92.80
46085;DHT22;31823;47.032;8.310;2023-04-04T13:08:07;9.00;93.70
46085;DHT22;31823;47.032;8.310;2023-04-04T13:11:00;9.10;92.00
46085;DHT22;31823;47.032;8.310;2023-04-04T13:16:09;8.80;91.20
46085;DHT22;31823;47.032;8.310;2023-04-04T13:18:36;7.90;91.40
46085;DHT22;31823;47.032;8.310;2023-04-04T13:21:04;8.00;91.40
46085;DHT22;31823;47.032;8.310;2023-04-04T13:23:32;8.80;91.70
46085;DHT22;31823;47.032;8.310;2023-04-04T13:25:58;9.00;91.10
46085;DHT22;31823;47.032;8.310;2023-04-04T13:28:24;10.60;91.00
46085;DHT22;31823;47.032;8.310;2023-04-04T13:30:52;10.30;90.20
46085;DHT22;31823;47.032;8.310;2023-04-04T13:33:17;10.10;90.50
46085;DHT22;31823;47.032;8.310;2023-04-04T13:35:44;9.40;89.90
46085;DHT22;31823;47.032;8.310;2023-04-04T13:38:10;8.00;89.20
46085;DHT22;31823;47.032;8.310;2023-04-04T13:40:36;8.40;90.30
46085;DHT22;31823;47.032;8.310;2023-04-04T13:43:02;8.50;90.50
46085;DHT22;31823;47.032;8.310;2023-04-04T13:45:28;8.40;89.90
46085;DHT22;31823;47.032;8.310;2023-04-04T13:47:53;8.40;89.40
46085;DHT22;31823;47.032;8.310;2023-04-04T13:50:19;8.00;89.60
46085;DHT22;31823;47.032;8.310;2023-04-04T13:52:44;8.80;88.50
46085;DHT22;31823;47.032;8.310;2023-04-04T13:55:10;10.20;89.30
46085;DHT22;31823;47.032;8.310;2023-04-04T13:57:36;10.40;84.60
46085;DHT22;31823;47.032;8.310;2023-04-04T14:00:02;9.70;86.60
46085;DHT22;31823;47.032;8.310;2023-04-04T14:02:29;8.90;86.20
46085;DHT22;31823;47.032;8.310;2023-04-04T14:04:55;8.20;88.50
46085;DHT22;31823;47.032;8.310;2023-04-04T14:07:20;8.40;89.70
46085;DHT22;31823;47.032;8.310;2023-04-04T14:09:46;8.40;88.20
46085;DHT22;31823;47.032;8.310;2023-04-04T14:12:12;8.30;85.50
46085;DHT22;31823;47.032;8.310;2023-04-04T14:14:37;8.10;87.50
46085;DHT22;31823;47.032;8.310;2023-04-04T14:17:05;8.70;90.90
46085;DHT22;31823;47.032;8.310;2023-04-04T14:19:30;10.00;90.10
46085;DHT22;31823;47.032;8.310;2023-04-04T14:21:56;11.20;90.30
46085;DHT22;31823;47.032;8.310;2023-04-04T14:24:22;10.10;83.10
46085;DHT22;31823;47.032;8.310;2023-04-04T14:26:47;10.00;88.80
46085;DHT22;31823;47.032;8.310;2023-04-04T14:29:13;9.40;85.20
46085;DHT22;31823;47.032;8.310;2023-04-04T14:31:38;10.30;89.10
46085;DHT22;31823;47.032;8.310;2023-04-04T14:34:04;10.30;85.00
46085;DHT22;31823;47.032;8.310;2023-04-04T14:36:30;10.40;85.90
46085;DHT22;31823;47.032;8.310;2023-04-04T14:38:56;10.50;87.80
46085;DHT22;31823;47.032;8.310;2023-04-04T14:41:21;9.40;86.30
46085;DHT22;31823;47.032;8.310;2023-04-04T14:43:47;9.30;85.90
46085;DHT22;31823;47.032;8.310;2023-04-04T14:46:12;9.10;85.40
46085;DHT22;31823;47.032;8.310;2023-04-04T14:48:38;8.20;84.40
46085;DHT22;31823;47.032;8.310;2023-04-04T14:51:04;8.10;84.30
46085;DHT22;31823;47.032;8.310;2023-04-04T14:53:30;8.20;88.00
46085;DHT22;31823;47.032;8.310;2023-04-04T14:55:56;8.30;89.80
46085;DHT22;31823;47.032;8.310;2023-04-04T14:58:21;8.20;84.10
46085;DHT22;31823;47.032;8.310;2023-04-04T15:00:47;8.80;84.60
46085;DHT22;31823;47.032;8.310;2023-04-04T15:03:14;8.90;86.20
46085;DHT22;31823;47.032;8.310;2023-04-04T15:05:40;8.70;84.30
46085;DHT22;31823;47.032;8.310;2023-04-04T15:08:06;8.30;84.20
46085;DHT22;31823;47.032;8.310;2023-04-04T15:10:32;8.20;85.40
46085;DHT22;31823;47.032;8.310;2023-04-04T15:12:58;8.10;88.40
46085;DHT22;31823;47.032;8.310;2023-04-04T15:15:23;8.10;88.20
46085;DHT22;31823;47.032;8.310;2023-04-04T15:17:50;8.10;86.50
46085;DHT22;31823;47.032;8.310;2023-04-04T15:20:15;8.00;86.80
46085;DHT22;31823;47.032;8.310;2023-04-04T15:22:41;8.30;88.20
46085;DHT22;31823;47.032;8.310;2023-04-04T15:25:08;8.80;89.60
46085;DHT22;31823;47.032;8.310;2023-04-04T15:27:34;8.50;86.50
46085;DHT22;31823;47.032;8.310;2023-04-04T15:30:00;8.50;85.90
46085;DHT22;31823;47.032;8.310;2023-04-04T15:32:25;8.40;87.10
46085;DHT22;31823;47.032;8.310;2023-04-04T15:34:52;8.00;87.50
46085;DHT22;31823;47.032;8.310;2023-04-04T15:37:17;8.10;87.90
46085;DHT22;31823;47.032;8.310;2023-04-04T15:39:43;8.30;87.00
46085;DHT22;31823;47.032;8.310;2023-04-04T15:42:10;8.30;87.30
46085;DHT22;31823;47.032;8.310;2023-04-04T15:44:36;8.00;85.40
46085;DHT22;31823;47.032;8.310;2023-04-04T15:47:02;8.50;88.20
46085;DHT22;31823;47.032;8.310;2023-04-04T15:49:28;9.00;89.60
46085;DHT22;31823;47.032;8.310;2023-04-04T15:51:57;9.40;85.80
46085;DHT22;31823;47.032;8.310;2023-04-04T15:54:22;9.10;85.40
46085;DHT22;31823;47.032;8.310;2023-04-04T15:56:49;9.40;83.80
46085;DHT22;31823;47.032;8.310;2023-04-04T15:59:15;9.10;84.80
46085;DHT22;31823;47.032;8.310;2023-04-04T16:01:40;8.60;84.40
46085;DHT22;31823;47.032;8.310;2023-04-04T16:04:06;8.50;86.20
46085;DHT22;31823;47.032;8.310;2023-04-04T16:06:32;8.20;84.50